createdAt,value
2022-10-14T00:01:13.832Z,146285.59
2022-10-14T00:03:41.175Z,146275.84
2022-10-14T00:06:12.107Z,146274.66
2022-10-14T00:08:39.996Z,146268.59
2022-10-14T00:11:12.983Z,146268.59
2022-10-14T00:13:40.307Z,146305.09
2022-10-14T00:16:14.261Z,146206.50
2022-10-14T00:18:41.315Z,146285.59
2022-10-14T00:21:09.806Z,146269.78
2022-10-14T00:23:36.925Z,146269.78
2022-10-14T00:26:04.256Z,146269.78
2022-10-14T00:28:32.834Z,146261.25
2022-10-14T00:31:01.383Z,146271.00
2022-10-14T00:33:29.154Z,146271.00
2022-10-14T00:36:04.102Z,146278.31
2022-10-14T00:38:35.004Z,146168.78
2022-10-14T00:41:02.806Z,146261.25
2022-10-14T00:43:50.276Z,146261.25
2022-10-14T00:46:17.507Z,146251.53
2022-10-14T00:48:44.868Z,146161.47
2022-10-14T00:51:12.063Z,146179.72
2022-10-14T00:53:42.704Z,146252.75
2022-10-14T00:56:11.288Z,146244.22
2022-10-14T00:58:38.819Z,146234.47
2022-10-14T01:01:07.854Z,146246.66
2022-10-14T01:03:34.997Z,146251.53
2022-10-14T01:06:31.945Z,146253.94
2022-10-14T01:09:33.873Z,146244.22
2022-10-14T01:12:30.305Z,146249.06
2022-10-14T01:15:07.023Z,146211.34
2022-10-14T01:18:23.282Z,146273.44
2022-10-14T01:21:21.240Z,146180.91
2022-10-14T01:24:02.637Z,146271.00
2022-10-14T01:26:48.547Z,146300.25
2022-10-14T01:29:32.496Z,146284.38
2022-10-14T01:32:06.426Z,146224.75
2022-10-14T01:34:51.027Z,146278.31
2022-10-14T01:37:25.829Z,146273.44
2022-10-14T01:39:59.337Z,146271.00
2022-10-14T01:42:34.989Z,146263.72
2022-10-14T01:45:15.972Z,146207.69
2022-10-14T01:47:46.425Z,146275.84
2022-10-14T01:50:17.271Z,146263.72
2022-10-14T01:52:50.772Z,146176.06
2022-10-14T01:55:25.090Z,146260.06
2022-10-14T01:57:56.092Z,146255.19
2022-10-14T02:00:25.005Z,146247.88
2022-10-14T02:02:52.086Z,146171.19
2022-10-14T02:05:32.023Z,146250.34
2022-10-14T02:08:10.832Z,146263.72
2022-10-14T02:11:08.434Z,146249.06
2022-10-14T02:13:44.485Z,146257.59
2022-10-14T02:16:31.090Z,146249.06
2022-10-14T02:19:16.895Z,146249.06
2022-10-14T02:21:51.870Z,146228.41
2022-10-14T02:24:24.705Z,146165.13
2022-10-14T02:26:55.779Z,146232.06
2022-10-14T02:29:25.360Z,146229.63
2022-10-14T02:31:55.085Z,146225.97
2022-10-14T02:34:25.489Z,146146.88
2022-10-14T02:36:54.426Z,146249.06
2022-10-14T02:39:28.949Z,146241.81
2022-10-14T02:41:57.842Z,146245.47
2022-10-14T02:44:24.898Z,146244.22
2022-10-14T02:46:52.684Z,146239.34
2022-10-14T02:49:19.781Z,146253.94
2022-10-14T02:51:46.787Z,146246.66
2022-10-14T02:54:14.120Z,146241.81
2022-10-14T02:56:41.750Z,146232.06
2022-10-14T02:59:08.788Z,146244.22
2022-10-14T03:01:37.797Z,146190.69
2022-10-14T03:04:06.581Z,146253.94
2022-10-14T03:06:33.625Z,146258.81
2022-10-14T03:09:01.045Z,146241.81
2022-10-14T03:11:28.064Z,146172.44
2022-10-14T03:14:01.669Z,146244.22
2022-10-14T03:16:29.067Z,146239.34
2022-10-14T03:18:56.421Z,146250.34
2022-10-14T03:21:38.308Z,146255.19
2022-10-14T03:24:09.477Z,146260.06
2022-10-14T03:26:37.343Z,146266.13
2022-10-14T03:29:04.562Z,146263.72
2022-10-14T03:31:48.773Z,146272.19
2022-10-14T03:34:28.850Z,146263.72
2022-10-14T03:37:04.899Z,146219.88
2022-10-14T03:39:34.725Z,146219.88
2022-10-14T03:42:05.712Z,146273.44
2022-10-14T03:44:40.892Z,146275.84
2022-10-14T03:47:16.189Z,146286.84
2022-10-14T03:49:44.596Z,146280.72
2022-10-14T03:52:19.382Z,146256.41
2022-10-14T03:54:54.934Z,146286.84
2022-10-14T03:57:22.148Z,146295.31
2022-10-14T03:59:52.620Z,146295.31
2022-10-14T04:02:21.693Z,146300.25
2022-10-14T04:04:57.086Z,146300.25
2022-10-14T04:07:27.334Z,146300.25
2022-10-14T04:09:57.461Z,146322.13
2022-10-14T04:12:24.969Z,146317.25
2022-10-14T04:15:00.065Z,146300.25
2022-10-14T04:17:33.062Z,146297.78
2022-10-14T04:20:06.430Z,146316.03
2022-10-14T04:22:33.647Z,146297.78
2022-10-14T04:25:01.146Z,146274.66
2022-10-14T04:27:28.198Z,146307.50
2022-10-14T04:30:03.057Z,146301.44
2022-10-14T04:32:40.483Z,146305.09
2022-10-14T04:35:09.534Z,146302.66
2022-10-14T04:37:38.856Z,146296.56
2022-10-14T04:40:16.577Z,146302.66
2022-10-14T04:42:47.232Z,146305.09
2022-10-14T04:45:25.116Z,146261.25
2022-10-14T04:47:59.265Z,146317.25
2022-10-14T04:50:27.356Z,146320.91
2022-10-14T04:53:14.029Z,146322.13
2022-10-14T04:55:57.687Z,146334.31
2022-10-14T04:58:25.084Z,146356.22
2022-10-14T05:00:55.333Z,146361.09
2022-10-14T05:03:34.460Z,146339.16
2022-10-14T05:06:01.509Z,146334.31
2022-10-14T05:08:29.785Z,146334.31
2022-10-14T05:10:59.474Z,146319.69
2022-10-14T05:13:36.973Z,146324.56
2022-10-14T05:16:08.793Z,146303.84
2022-10-14T05:18:35.913Z,146298.97
2022-10-14T05:21:07.959Z,146309.97
2022-10-14T05:24:01.229Z,146314.84
2022-10-14T05:26:31.574Z,146303.84
2022-10-14T05:29:01.883Z,146200.44
2022-10-14T05:31:29.844Z,146309.97
2022-10-14T05:34:17.099Z,146302.66
2022-10-14T05:36:45.363Z,146309.97
2022-10-14T05:39:13.325Z,146307.50
2022-10-14T05:41:40.610Z,146331.84
2022-10-14T05:44:11.385Z,146319.69
2022-10-14T05:46:39.487Z,146334.31
2022-10-14T05:49:06.872Z,146308.72
2022-10-14T05:51:37.413Z,146333.09
2022-10-14T05:54:12.287Z,146269.78
2022-10-14T05:56:42.072Z,146337.97
2022-10-14T05:59:10.355Z,146339.16
2022-10-14T06:01:38.262Z,146328.22
2022-10-14T06:04:05.309Z,146331.84
2022-10-14T06:06:32.865Z,146326.97
2022-10-14T06:09:00.008Z,146330.63
2022-10-14T06:11:27.022Z,146329.44
2022-10-14T06:13:54.071Z,146336.75
2022-10-14T06:16:21.198Z,146346.50
2022-10-14T06:18:53.481Z,146358.63
2022-10-14T06:21:22.333Z,146375.69
2022-10-14T06:23:49.415Z,146351.34
2022-10-14T06:26:16.411Z,146358.63
2022-10-14T06:28:43.694Z,146358.63
2022-10-14T06:31:10.699Z,146285.59
2022-10-14T06:33:38.175Z,146373.28
2022-10-14T06:36:06.898Z,146362.28
2022-10-14T06:38:33.908Z,146406.16
2022-10-14T06:41:00.980Z,146409.88
2022-10-14T06:43:28.061Z,146431.75
2022-10-14T06:45:57.493Z,146434.19
2022-10-14T06:48:24.478Z,146429.34
2022-10-14T06:50:52.392Z,146453.66
2022-10-14T06:53:19.391Z,146443.94
2022-10-14T06:55:46.569Z,146361.09
2022-10-14T06:58:13.745Z,146457.34
2022-10-14T07:00:44.426Z,146469.53
2022-10-14T07:03:14.869Z,146487.81
2022-10-14T07:05:41.818Z,146484.13
2022-10-14T07:08:11.381Z,146464.66
2022-10-14T07:10:41.527Z,146461.00
2022-10-14T07:13:08.619Z,146459.75
2022-10-14T07:15:37.959Z,146478.03
2022-10-14T07:18:07.310Z,146475.59
2022-10-14T07:20:34.513Z,146473.16
2022-10-14T07:23:01.697Z,146467.06
2022-10-14T07:25:28.694Z,146485.34
2022-10-14T07:27:55.677Z,146487.81
2022-10-14T07:30:22.833Z,146529.22
2022-10-14T07:32:50.225Z,146568.16
2022-10-14T07:35:19.010Z,146521.88
2022-10-14T07:37:46.673Z,146614.47
2022-10-14T07:40:14.077Z,146630.31
2022-10-14T07:42:41.072Z,146603.50
2022-10-14T07:45:09.742Z,146665.66
2022-10-14T07:47:36.764Z,146670.53
2022-10-14T07:50:04.027Z,146636.41
2022-10-14T07:52:31.018Z,146648.59
2022-10-14T07:54:58.080Z,146681.50
2022-10-14T07:57:25.490Z,146660.75
2022-10-14T07:59:52.618Z,146675.41
2022-10-14T08:02:19.705Z,146663.22
2022-10-14T08:04:47.345Z,146672.97
2022-10-14T08:07:14.748Z,146663.22
2022-10-14T08:09:41.879Z,146640.06
2022-10-14T08:12:08.857Z,146619.34
2022-10-14T08:14:36.190Z,146627.88
2022-10-14T08:17:03.441Z,146607.19
2022-10-14T08:19:30.608Z,146619.34
2022-10-14T08:21:57.642Z,146618.13
2022-10-14T08:24:24.677Z,146634.00
2022-10-14T08:26:58.039Z,146647.41
2022-10-14T08:29:26.272Z,146652.28
2022-10-14T08:31:55.186Z,146674.16
2022-10-14T08:34:24.245Z,146644.94
2022-10-14T08:36:52.393Z,146629.13
2022-10-14T08:39:20.624Z,146641.28
2022-10-14T08:42:12.573Z,146643.72
2022-10-14T08:45:08.724Z,146612.03
2022-10-14T08:47:40.171Z,146638.84
2022-10-14T08:50:17.280Z,146634.00
2022-10-14T08:53:13.494Z,146643.72
2022-10-14T08:55:44.908Z,146535.28
2022-10-14T08:58:31.718Z,146631.53
2022-10-14T09:01:21.653Z,146668.09
2022-10-14T09:03:56.509Z,146659.56
2022-10-14T09:06:30.180Z,146665.66
2022-10-14T09:09:04.680Z,146646.13
2022-10-14T09:11:39.708Z,146648.59
2022-10-14T09:14:09.717Z,146558.44
2022-10-14T09:16:39.569Z,146654.69
2022-10-14T09:19:15.039Z,146670.53
2022-10-14T09:21:54.017Z,146681.50
2022-10-14T09:24:25.317Z,146685.16
2022-10-14T09:27:00.782Z,146697.31
2022-10-14T09:29:30.567Z,146632.72
2022-10-14T09:32:11.182Z,146704.66
2022-10-14T09:34:44.736Z,146677.81
2022-10-14T09:37:30.795Z,146755.88
2022-10-14T09:40:17.836Z,146790.03
2022-10-14T09:42:51.200Z,146797.31
2022-10-14T09:45:22.552Z,146875.34
2022-10-14T09:47:51.419Z,146905.84
2022-10-14T09:50:29.237Z,146948.50
2022-10-14T09:53:02.008Z,146964.38
2022-10-14T09:55:30.241Z,146943.63
2022-10-14T09:58:14.037Z,146822.94
2022-10-14T10:00:41.362Z,146865.59
2022-10-14T10:03:23.337Z,146924.13
2022-10-14T10:06:00.229Z,146943.63
2022-10-14T10:08:27.495Z,146874.13
2022-10-14T10:11:03.776Z,146911.91
2022-10-14T10:13:41.344Z,146929.00
2022-10-14T10:16:19.731Z,146899.75
2022-10-14T10:18:47.000Z,146875.34
2022-10-14T10:21:22.193Z,146881.47
2022-10-14T10:23:55.675Z,146865.59
2022-10-14T10:26:26.541Z,146892.41
2022-10-14T10:28:57.422Z,146929.00
2022-10-14T10:31:30.735Z,146931.47
2022-10-14T10:34:16.076Z,146931.47
2022-10-14T10:36:52.194Z,146935.09
2022-10-14T10:39:30.827Z,146933.88
2022-10-14T10:42:00.941Z,146907.03
2022-10-14T10:44:53.556Z,146887.53
2022-10-14T10:48:04.124Z,146908.28
2022-10-14T10:50:49.920Z,146909.50
2022-10-14T10:53:32.114Z,146927.78
2022-10-14T10:56:14.154Z,146955.84
2022-10-14T10:59:01.711Z,146964.38
2022-10-14T11:01:50.362Z,146922.91
2022-10-14T11:04:20.500Z,146921.72
2022-10-14T11:07:18.277Z,146897.28
2022-10-14T11:10:27.523Z,146842.44
2022-10-14T11:13:06.628Z,146849.75
2022-10-14T11:15:44.887Z,146768.06
2022-10-14T11:18:34.977Z,146843.63
2022-10-14T11:21:33.813Z,146846.09
2022-10-14T11:24:07.644Z,146853.44
2022-10-14T11:26:59.413Z,146860.72
2022-10-14T11:29:46.808Z,146879.00
2022-10-14T11:32:31.495Z,146876.59
2022-10-14T11:35:14.876Z,146880.22
2022-10-14T11:37:53.133Z,146890.00
2022-10-14T11:40:46.653Z,146898.50
2022-10-14T11:43:43.662Z,146949.75
2022-10-14T11:46:17.951Z,146819.25
2022-10-14T11:49:22.611Z,146959.50
2022-10-14T11:51:55.739Z,146926.59
2022-10-14T11:54:28.358Z,146900.97
2022-10-14T11:56:55.818Z,146897.28
2022-10-14T11:59:37.221Z,146902.16
2022-10-14T12:02:17.844Z,146897.28
2022-10-14T12:04:52.417Z,146892.41
2022-10-14T12:07:26.868Z,146870.47
2022-10-14T12:10:00.542Z,146874.13
2022-10-14T12:12:30.200Z,146860.72
2022-10-14T12:15:06.016Z,146841.22
2022-10-14T12:17:46.335Z,146831.47
2022-10-14T12:20:27.637Z,146863.19
2022-10-14T12:22:57.249Z,146804.66
2022-10-14T12:25:29.646Z,146893.63
2022-10-14T12:27:57.341Z,146907.03
2022-10-14T12:30:33.275Z,146892.41
2022-10-14T12:33:06.937Z,146891.22
2022-10-14T12:35:52.481Z,146892.41
2022-10-14T12:38:21.412Z,146841.22
2022-10-14T12:40:49.146Z,146865.59
2022-10-14T12:43:23.568Z,146860.72
2022-10-14T12:46:13.210Z,146863.19
2022-10-14T12:48:51.789Z,146802.19
2022-10-14T12:51:22.449Z,146881.47
2022-10-14T12:54:05.277Z,146890.00
2022-10-14T12:56:52.554Z,146899.75
2022-10-14T12:59:25.394Z,146820.47
2022-10-14T13:01:58.301Z,146771.75
2022-10-14T13:04:26.243Z,146868.03
2022-10-14T13:07:38.982Z,146844.88
2022-10-14T13:10:26.695Z,146850.97
2022-10-14T13:12:54.410Z,146848.56
2022-10-14T13:15:48.011Z,146836.34
2022-10-14T13:18:36.197Z,146863.19
2022-10-14T13:21:07.832Z,146850.97
2022-10-14T13:23:43.393Z,146838.75
2022-10-14T13:26:28.895Z,146636.41
2022-10-14T13:29:06.019Z,146870.47
2022-10-14T13:31:45.021Z,146814.41
2022-10-14T13:34:24.112Z,146870.47
2022-10-14T13:37:03.478Z,146858.31
2022-10-14T13:39:33.226Z,146804.66
2022-10-14T13:42:01.709Z,146854.63
2022-10-14T13:44:28.759Z,146841.22
2022-10-14T13:46:56.657Z,146848.56
2022-10-14T13:49:33.390Z,146844.88
2022-10-14T13:52:05.096Z,146852.16
2022-10-14T13:54:32.363Z,146838.75
2022-10-14T13:57:53.606Z,146846.09
2022-10-14T14:02:54.544Z,146819.25
2022-10-14T14:08:30.554Z,146787.56
2022-10-14T14:11:15.130Z,146842.44
2022-10-14T14:13:54.523Z,146846.09
2022-10-14T14:16:29.587Z,146865.59
2022-10-14T14:19:07.765Z,146842.44
2022-10-14T14:21:35.822Z,146831.47
2022-10-14T14:24:13.778Z,146833.88
2022-10-14T14:26:40.884Z,146848.56
2022-10-14T14:29:17.292Z,146847.31
2022-10-14T14:34:36.779Z,146836.34
2022-10-14T14:37:25.058Z,146821.72
2022-10-14T14:40:18.454Z,146818.06
2022-10-14T14:42:47.950Z,146811.97
2022-10-14T14:45:21.840Z,146819.25
2022-10-14T14:47:53.432Z,146792.44
2022-10-14T14:50:31.375Z,146786.34
2022-10-14T14:53:13.722Z,146780.28
2022-10-14T14:55:45.995Z,146792.44
2022-10-14T14:58:22.685Z,146697.31
2022-10-14T15:00:51.491Z,146780.28
2022-10-14T15:03:18.589Z,146792.44
2022-10-14T15:05:57.027Z,146790.03
2022-10-14T15:08:29.751Z,146782.69
2022-10-14T15:10:58.469Z,146777.81
2022-10-14T15:13:30.138Z,146781.50
2022-10-14T15:15:57.314Z,146780.28
2022-10-14T15:18:28.722Z,146793.69
2022-10-14T15:21:16.573Z,146782.69
2022-10-14T15:23:49.535Z,146794.91
2022-10-14T15:26:34.220Z,146794.91
2022-10-14T15:29:14.484Z,146807.06
2022-10-14T15:31:44.670Z,146796.09
2022-10-14T15:34:18.217Z,146765.63
2022-10-14T15:36:45.592Z,146808.31
2022-10-14T15:39:13.806Z,146826.59
2022-10-14T15:41:41.672Z,146815.59
2022-10-14T15:44:08.814Z,146793.69
2022-10-14T15:46:55.744Z,146787.56
2022-10-14T15:49:52.245Z,146787.56
2022-10-14T15:52:23.014Z,146797.31
2022-10-14T15:54:53.712Z,146777.81
2022-10-14T15:57:21.254Z,146790.03
2022-10-14T15:59:51.941Z,146785.16
2022-10-14T16:02:25.887Z,146794.91
2022-10-14T16:05:18.676Z,146765.63
2022-10-14T16:07:40.933Z,146807.06
2022-10-14T16:10:10.992Z,146780.28
2022-10-14T16:12:38.003Z,146794.91
2022-10-14T16:15:20.315Z,146786.34
2022-10-14T16:17:50.247Z,146780.28
2022-10-14T16:20:20.932Z,146771.75
2022-10-14T16:22:48.034Z,146768.06
2022-10-14T16:25:23.140Z,146776.63
2022-10-14T16:27:50.778Z,146788.78
2022-10-14T16:30:17.823Z,146775.41
2022-10-14T16:32:45.057Z,146787.56
2022-10-14T16:35:12.233Z,146740.03
2022-10-14T16:37:40.907Z,146772.94
2022-10-14T16:40:10.450Z,146780.28
2022-10-14T16:42:37.413Z,146770.50
2022-10-14T16:45:05.680Z,146758.34
2022-10-14T16:47:32.844Z,146744.91
2022-10-14T16:50:00.041Z,146747.34
2022-10-14T16:52:27.241Z,146752.22
2022-10-14T16:54:54.362Z,146742.47
2022-10-14T16:57:21.313Z,146722.97
2022-10-14T16:59:48.461Z,146715.63
2022-10-14T17:02:16.501Z,146681.50
2022-10-14T17:04:46.244Z,146716.91
2022-10-14T17:07:14.820Z,146730.31
2022-10-14T17:09:41.845Z,146721.75
2022-10-14T17:12:12.892Z,146719.31
2022-10-14T17:14:41.396Z,146674.16
2022-10-14T17:17:10.256Z,146704.66
2022-10-14T17:19:38.319Z,146715.63
2022-10-14T17:22:05.559Z,146715.63
2022-10-14T17:24:32.655Z,146726.63
2022-10-14T17:27:04.335Z,146715.63
2022-10-14T17:29:31.681Z,146741.25
2022-10-14T17:31:58.693Z,146683.94
2022-10-14T17:34:25.812Z,146680.28
2022-10-14T17:36:53.351Z,146719.31
2022-10-14T17:39:27.462Z,146697.31
2022-10-14T17:41:57.194Z,146727.84
2022-10-14T17:44:24.677Z,146747.34
2022-10-14T17:46:51.662Z,146752.22
2022-10-14T17:49:18.730Z,146770.50
2022-10-14T17:51:45.745Z,146743.72
2022-10-14T17:54:13.471Z,146692.44
2022-10-14T17:56:41.005Z,146705.84
2022-10-14T17:59:10.723Z,146704.66
2022-10-14T18:02:00.822Z,146714.44
2022-10-14T18:04:24.771Z,146738.84
2022-10-14T18:06:52.848Z,146731.50
2022-10-14T18:09:19.881Z,146710.78
2022-10-14T18:12:07.737Z,146693.69
2022-10-14T18:14:35.950Z,146682.69
2022-10-14T18:17:02.950Z,146680.28
2022-10-14T18:19:29.995Z,146670.53
2022-10-14T18:21:57.780Z,146676.63
2022-10-14T18:24:24.917Z,146635.19
2022-10-14T18:26:53.191Z,146646.13
2022-10-14T18:29:20.563Z,146646.13
2022-10-14T18:34:24.846Z,146599.84
2022-10-14T18:36:51.828Z,146642.47
2022-10-14T18:39:20.518Z,146648.59
2022-10-14T18:41:47.865Z,146636.41
2022-10-14T18:44:15.152Z,146616.91
2022-10-14T18:46:42.200Z,146619.34
2022-10-14T18:49:11.255Z,146631.53
2022-10-14T18:51:40.142Z,146607.19
2022-10-14T18:54:15.744Z,146507.28
2022-10-14T18:56:44.382Z,146616.91
2022-10-14T18:59:18.027Z,146577.91
2022-10-14T19:01:46.161Z,146624.19
2022-10-14T19:04:15.325Z,146599.84
2022-10-14T19:06:46.061Z,146607.19
2022-10-14T19:09:13.705Z,146602.31
2022-10-14T19:11:41.529Z,146612.03
2022-10-14T19:14:09.752Z,146599.84
2022-10-14T19:16:38.860Z,146619.34
2022-10-14T19:19:11.999Z,146629.13
2022-10-14T19:21:39.624Z,146651.00
2022-10-14T19:24:10.192Z,146638.84
2022-10-14T19:26:40.333Z,146629.13
2022-10-14T19:29:11.527Z,146637.59
2022-10-14T19:31:40.072Z,146669.28
2022-10-14T19:34:10.227Z,146616.91
2022-10-14T19:36:39.117Z,146651.00
2022-10-14T19:39:08.892Z,146649.81
2022-10-14T19:41:43.064Z,146634.00
2022-10-14T19:44:11.680Z,146543.81
2022-10-14T19:46:38.858Z,146616.91
2022-10-14T19:49:06.341Z,146626.66
2022-10-14T19:51:34.398Z,146644.94
2022-10-14T19:54:01.873Z,146659.56
2022-10-14T19:56:29.815Z,146631.53
2022-10-14T19:58:58.711Z,146659.56
2022-10-14T20:01:28.562Z,146646.13
2022-10-14T20:03:56.254Z,146662.00
2022-10-14T20:06:24.354Z,146669.28
2022-10-14T20:08:51.527Z,146672.97
2022-10-14T20:11:21.174Z,146690.03
2022-10-14T20:13:48.664Z,146680.28
2022-10-14T20:16:16.397Z,146665.66
2022-10-14T20:18:43.673Z,146663.22
2022-10-14T20:21:13.096Z,146619.34
2022-10-14T20:23:40.375Z,146662.00
2022-10-14T20:26:11.357Z,146648.59
2022-10-14T20:28:39.595Z,146654.69
2022-10-14T20:31:09.093Z,146657.13
2022-10-14T20:33:36.542Z,146638.84
2022-10-14T20:36:10.718Z,146665.66
2022-10-14T20:38:38.969Z,146719.31
2022-10-14T20:41:07.821Z,146694.91
2022-10-14T20:43:35.165Z,146694.91
2022-10-14T20:46:02.249Z,146720.56
2022-10-14T20:48:29.238Z,146710.78
2022-10-14T20:50:56.476Z,146691.22
2022-10-14T20:54:19.967Z,146687.56
2022-10-14T20:56:49.146Z,146659.56
2022-10-14T20:59:16.133Z,146704.66
2022-10-14T21:01:43.133Z,146577.91
2022-10-14T21:04:10.161Z,146704.66
2022-10-14T21:06:38.611Z,146704.66
2022-10-14T21:09:06.125Z,146680.28
2022-10-14T21:11:33.116Z,146681.50
2022-10-14T21:14:00.743Z,146685.16
2022-10-14T21:16:29.407Z,146683.94
2022-10-14T21:19:07.963Z,146638.84
2022-10-14T21:21:38.229Z,146670.53
2022-10-14T21:24:06.392Z,146663.22
2022-10-14T21:26:33.776Z,146609.59
2022-10-14T21:29:05.041Z,146679.03
2022-10-14T21:31:32.243Z,146658.34
2022-10-14T21:34:05.354Z,146652.28
2022-10-14T21:36:33.094Z,146660.75
2022-10-14T21:39:03.771Z,146634.00
2022-10-14T21:41:30.850Z,146652.28
2022-10-14T21:43:59.234Z,146641.28
2022-10-14T21:46:27.402Z,146587.66
2022-10-14T21:48:58.858Z,146669.28
2022-10-14T21:51:30.395Z,146646.13
2022-10-14T21:53:57.874Z,146675.41
2022-10-14T21:56:26.253Z,146592.56
2022-10-14T21:58:53.407Z,146597.44
2022-10-14T22:01:22.932Z,146672.97
2022-10-14T22:03:55.385Z,146668.09
2022-10-14T22:06:22.671Z,146568.16
2022-10-14T22:08:51.663Z,146658.34
2022-10-14T22:11:23.121Z,146651.00
2022-10-14T22:13:51.276Z,146641.28
2022-10-14T22:16:18.645Z,146643.72
2022-10-14T22:18:47.385Z,146635.19
2022-10-14T22:21:16.140Z,146615.72
2022-10-14T22:23:43.550Z,146609.59
2022-10-14T22:26:15.558Z,146580.38
2022-10-14T22:28:42.716Z,146603.50
2022-10-14T22:31:11.674Z,146593.78
2022-10-14T22:33:39.706Z,146565.75
2022-10-14T22:36:06.881Z,146608.38
2022-10-14T22:38:35.286Z,146598.66
2022-10-14T22:41:03.564Z,146590.09
2022-10-14T22:43:31.305Z,146543.81
2022-10-14T22:46:03.336Z,146614.47
2022-10-14T22:48:31.360Z,146614.47
2022-10-14T22:51:10.213Z,146612.03
2022-10-14T22:53:38.727Z,146615.72
2022-10-14T22:56:08.622Z,146602.31
2022-10-14T22:58:35.994Z,146524.34
2022-10-14T23:01:14.531Z,146610.84
2022-10-14T23:03:42.448Z,146605.94
2022-10-14T23:06:12.361Z,146599.84
2022-10-14T23:08:40.558Z,146607.19
2022-10-14T23:11:10.055Z,146594.97
2022-10-14T23:13:37.064Z,146591.31
2022-10-14T23:16:06.822Z,146587.66
2022-10-14T23:18:36.644Z,146602.31
2022-10-14T23:21:28.214Z,146619.34
2022-10-14T23:23:57.410Z,146556.00
2022-10-14T23:26:28.289Z,146616.91
2022-10-14T23:28:57.479Z,146621.78
2022-10-14T23:31:27.501Z,146629.13
2022-10-14T23:33:57.492Z,146621.78
2022-10-14T23:36:24.570Z,146614.47
2022-10-14T23:38:52.469Z,146556.00
2022-10-14T23:41:21.892Z,146629.13
2022-10-14T23:43:50.355Z,146646.13
2022-10-14T23:46:17.840Z,146620.59
2022-10-14T23:48:51.483Z,146496.28
2022-10-14T23:51:28.208Z,146593.78
2022-10-14T23:53:55.267Z,146553.56
2022-10-14T23:56:22.265Z,146594.97
2022-10-14T23:58:49.250Z,146594.97
